Time;durP1;ratioP1;P1;durP2;ratioP2;P2;SDS_P1;SDS_P2;PMS_P1;PMS_P2;Temp;Humidity;BMP_temperature;BMP_pressure;BME280_temperature;BME280_humidity;BME280_pressure;Samples;Min_cycle;Max_cycle;Signal;HPM_P1;HPM_P2
2022/11/25 00:02:01;;;;;;;0.60;0.60;;;7.70;99.90;;;;;;4939525;28;20795;-78
2022/11/25 00:04:28;;;;;;;0.65;0.65;;;7.70;99.90;;;;;;4974768;28;20098;-78
2022/11/25 00:06:53;;;;;;;0.68;0.68;;;7.70;99.90;;;;;;4961772;28;20776;-77
2022/11/25 00:09:19;;;;;;;0.60;0.60;;;7.60;99.90;;;;;;4976402;28;20090;-78
2022/11/25 00:11:45;;;;;;;0.60;0.60;;;7.60;99.90;;;;;;4984986;28;20097;-78
2022/11/25 00:14:13;;;;;;;0.60;0.60;;;7.60;99.90;;;;;;4989848;28;20163;-77
2022/11/25 00:16:39;;;;;;;0.70;0.70;;;7.60;99.90;;;;;;4959024;28;20521;-77
2022/11/25 00:19:05;;;;;;;0.60;0.60;;;7.50;99.90;;;;;;4990773;28;20040;-78
2022/11/25 00:21:33;;;;;;;1.88;1.83;;;7.50;99.90;;;;;;4962634;28;20049;-78
2022/11/25 00:24:02;;;;;;;0.60;0.60;;;7.60;99.90;;;;;;4979392;28;20044;-78
2022/11/25 00:26:31;;;;;;;0.60;0.60;;;7.60;99.90;;;;;;4975609;28;20146;-78
2022/11/25 00:28:59;;;;;;;0.60;0.60;;;7.60;99.90;;;;;;4977819;28;20048;-77
2022/11/25 00:31:28;;;;;;;0.70;0.70;;;7.60;99.90;;;;;;4964518;28;20195;-78
2022/11/25 00:33:54;;;;;;;0.60;0.60;;;7.60;99.90;;;;;;4978409;28;20044;-78
2022/11/25 00:36:25;;;;;;;0.60;0.60;;;7.60;99.90;;;;;;4975416;28;20207;-79
2022/11/25 00:39:06;;;;;;;0.60;0.60;;;7.70;99.90;;;;;;4970705;28;20446;-78
2022/11/25 00:44:36;;;;;;;0.60;0.60;;;7.80;99.90;;;;;;4965994;28;20056;-78
2022/11/25 00:47:05;;;;;;;0.60;0.60;;;7.80;99.90;;;;;;4965460;28;20044;-78
2022/11/25 00:49:31;;;;;;;0.63;0.63;;;7.80;99.90;;;;;;4959185;28;20046;-77
2022/11/25 00:51:57;;;;;;;0.60;0.60;;;7.80;99.90;;;;;;4979108;28;20216;-77
2022/11/25 00:54:23;;;;;;;0.60;0.60;;;7.80;99.90;;;;;;4957716;28;20450;-78
2022/11/25 00:56:49;;;;;;;0.60;0.60;;;7.90;99.90;;;;;;4942309;28;20040;-77
2022/11/25 00:59:15;;;;;;;0.60;0.60;;;7.90;99.90;;;;;;4965005;28;20063;-78
2022/11/25 01:01:54;;;;;;;0.60;0.60;;;7.90;99.90;;;;;;4960049;28;20638;-78
2022/11/25 01:04:20;;;;;;;0.60;0.60;;;7.80;99.90;;;;;;4935305;28;20044;-77
2022/11/25 01:06:45;;;;;;;0.60;0.60;;;7.80;99.90;;;;;;4952808;28;20051;-78
2022/11/25 01:09:12;;;;;;;0.60;0.60;;;7.80;99.90;;;;;;4959298;28;20829;-77
2022/11/25 01:11:43;;;;;;;0.60;0.60;;;7.80;99.90;;;;;;4967446;28;20060;-78
2022/11/25 01:14:10;;;;;;;0.60;0.60;;;7.80;99.90;;;;;;4972600;28;20399;-78
2022/11/25 01:16:35;;;;;;;0.60;0.60;;;7.80;99.90;;;;;;4974421;28;20052;-78
2022/11/25 01:19:02;;;;;;;0.60;0.60;;;7.80;99.90;;;;;;4959100;28;20045;-78
2022/11/25 01:21:30;;;;;;;0.60;0.60;;;7.80;99.90;;;;;;4953488;28;20127;-78
2022/11/25 01:23:57;;;;;;;0.60;0.60;;;7.80;99.90;;;;;;4956895;28;20428;-78
2022/11/25 01:26:24;;;;;;;0.60;0.60;;;7.80;99.90;;;;;;4944524;28;20048;-78
2022/11/25 01:29:02;;;;;;;0.60;0.60;;;7.80;99.90;;;;;;4955986;28;20435;-78
2022/11/25 01:31:33;;;;;;;0.60;0.60;;;7.80;99.90;;;;;;4956266;28;20505;-78
2022/11/25 01:34:06;;;;;;;0.60;0.60;;;7.90;99.90;;;;;;4956319;28;20830;-78
2022/11/25 01:36:32;;;;;;;0.60;0.60;;;7.90;99.90;;;;;;4971014;28;20071;-78
2022/11/25 01:38:59;;;;;;;0.60;0.60;;;7.90;99.90;;;;;;4956052;28;20054;-78
2022/11/25 01:41:29;;;;;;;0.60;0.60;;;7.90;99.90;;;;;;4969951;28;20078;-77
2022/11/25 01:44:15;;;;;;;0.60;0.60;;;8.00;99.90;;;;;;4972988;28;21211;-78
2022/11/25 01:47:02;;;;;;;0.60;0.60;;;8.00;99.90;;;;;;4936595;28;20047;-78
2022/11/25 01:49:37;;;;;;;0.60;0.60;;;8.00;99.90;;;;;;4951161;28;20059;-78
2022/11/25 01:52:06;;;;;;;0.60;0.60;;;8.10;99.90;;;;;;4976864;28;20167;-78
2022/11/25 01:54:36;;;;;;;0.60;0.60;;;8.10;99.90;;;;;;4958408;28;20055;-78
2022/11/25 01:57:08;;;;;;;0.60;0.60;;;8.10;99.90;;;;;;4969339;28;20076;-79
2022/11/25 01:59:40;;;;;;;0.60;0.60;;;8.20;99.90;;;;;;4954070;28;20517;-80
2022/11/25 02:02:08;;;;;;;0.60;0.60;;;8.20;99.90;;;;;;4957846;28;20048;-79
2022/11/25 02:04:37;;;;;;;0.60;0.60;;;8.20;99.90;;;;;;4960689;28;20619;-80
2022/11/25 02:07:19;;;;;;;0.60;0.60;;;8.20;99.90;;;;;;4956070;28;20049;-81
2022/11/25 02:09:47;;;;;;;0.60;0.60;;;8.20;99.90;;;;;;4962528;28;20048;-81
2022/11/25 02:12:14;;;;;;;0.60;0.60;;;8.30;99.90;;;;;;4961202;28;20595;-81
2022/11/25 02:14:40;;;;;;;0.60;0.60;;;8.30;99.90;;;;;;4956082;28;20056;-81
2022/11/25 02:17:06;;;;;;;0.60;0.60;;;8.30;99.90;;;;;;4942482;28;20063;-81
2022/11/25 02:19:58;;;;;;;0.60;0.60;;;8.30;99.90;;;;;;4953882;28;20135;-81
2022/11/25 02:22:31;;;;;;;0.60;0.60;;;8.20;99.90;;;;;;4957917;28;20107;-82
2022/11/25 02:25:08;;;;;;;0.60;0.60;;;8.30;99.90;;;;;;4957240;28;20504;-81
2022/11/25 02:27:33;;;;;;;0.60;0.60;;;8.30;99.90;;;;;;4967250;28;20547;-81
2022/11/25 02:29:59;;;;;;;0.70;0.70;;;8.20;99.90;;;;;;4950618;28;20097;-82
2022/11/25 02:32:25;;;;;;;0.60;0.60;;;8.30;99.90;;;;;;4957374;28;20085;-81
2022/11/25 02:34:50;;;;;;;0.60;0.60;;;8.30;99.90;;;;;;4957120;28;20503;-82
2022/11/25 02:37:19;;;;;;;0.60;0.60;;;8.30;99.90;;;;;;4959601;28;20139;-81
2022/11/25 02:39:46;;;;;;;0.60;0.60;;;8.30;99.90;;;;;;4952053;28;20075;-81
2022/11/25 02:42:13;;;;;;;0.60;0.60;;;8.30;99.90;;;;;;4954433;28;20498;-81
2022/11/25 02:44:39;;;;;;;0.68;0.68;;;8.20;99.90;;;;;;4949860;28;20177;-81
2022/11/25 02:47:05;;;;;;;0.60;0.60;;;8.30;99.90;;;;;;4951405;28;20048;-81
2022/11/25 02:49:31;;;;;;;0.60;0.60;;;8.30;99.90;;;;;;4942740;28;20044;-82
2022/11/25 02:51:57;;;;;;;0.60;0.60;;;8.30;99.90;;;;;;4954517;28;20052;-83
2022/11/25 02:54:22;;;;;;;0.60;0.60;;;8.30;99.90;;;;;;4961751;28;20501;-82
2022/11/25 02:56:48;;;;;;;0.60;0.60;;;8.30;99.90;;;;;;4964048;28;20051;-82
2022/11/25 02:59:14;;;;;;;0.60;0.60;;;8.30;99.90;;;;;;4957302;28;20044;-83
2022/11/25 03:01:40;;;;;;;0.60;0.60;;;8.30;99.90;;;;;;4939156;28;20129;-82
2022/11/25 03:04:06;;;;;;;0.60;0.60;;;8.30;99.90;;;;;;4963062;28;20044;-82
2022/11/25 03:06:32;;;;;;;0.60;0.60;;;8.30;99.90;;;;;;4950503;28;20062;-82
2022/11/25 03:08:57;;;;;;;0.60;0.60;;;8.30;99.90;;;;;;4949109;28;20051;-82
2022/11/25 03:12:17;;;;;;;0.60;0.60;;;8.30;99.90;;;;;;4954791;28;20063;-82
2022/11/25 03:14:10;;;;;;;0.60;0.60;;;8.30;99.90;;;;;;4948617;28;20068;-82
2022/11/25 03:16:36;;;;;;;0.60;0.60;;;8.30;99.90;;;;;;4954059;28;20851;-82
2022/11/25 03:19:01;;;;;;;0.60;0.60;;;8.30;99.90;;;;;;4957456;28;20048;-82
2022/11/25 03:21:27;;;;;;;0.60;0.60;;;8.30;99.90;;;;;;4936589;28;20052;-83
2022/11/25 03:23:54;;;;;;;0.50;0.50;;;8.30;99.90;;;;;;4954352;28;20335;-83
2022/11/25 03:26:20;;;;;;;0.60;0.60;;;8.30;99.90;;;;;;4938149;28;20094;-83
2022/11/25 03:28:46;;;;;;;0.60;0.60;;;8.30;99.90;;;;;;4954782;28;20044;-83
2022/11/25 03:31:11;;;;;;;0.60;0.60;;;8.30;99.90;;;;;;4955551;28;20134;-83
2022/11/25 03:33:37;;;;;;;0.60;0.60;;;8.30;99.90;;;;;;4949916;28;20461;-83
2022/11/25 03:36:03;;;;;;;0.60;0.60;;;8.30;99.90;;;;;;4936124;28;20500;-83
2022/11/25 03:38:29;;;;;;;0.60;0.60;;;8.40;99.90;;;;;;4958277;28;20056;-83
2022/11/25 03:40:54;;;;;;;0.63;0.63;;;8.30;99.90;;;;;;4938751;28;20729;-83
2022/11/25 03:43:20;;;;;;;0.60;0.60;;;8.40;99.90;;;;;;4938149;28;20040;-82
2022/11/25 03:45:49;;;;;;;0.60;0.60;;;8.40;99.90;;;;;;4936876;28;20040;-83
2022/11/25 03:48:25;;;;;;;0.60;0.60;;;8.40;99.90;;;;;;4959879;28;20044;-83
2022/11/25 03:50:51;;;;;;;0.60;0.60;;;8.40;99.90;;;;;;4952856;28;20049;-83
2022/11/25 03:53:16;;;;;;;0.60;0.60;;;8.40;99.90;;;;;;4938770;28;20468;-83
2022/11/25 03:55:42;;;;;;;0.60;0.60;;;8.40;99.90;;;;;;4969921;28;20557;-83
2022/11/25 03:58:08;;;;;;;0.60;0.60;;;8.40;99.90;;;;;;4938181;28;20129;-83
2022/11/25 04:00:34;;;;;;;0.60;0.60;;;8.40;99.90;;;;;;4961512;28;20044;-83
2022/11/25 04:03:00;;;;;;;0.60;0.60;;;8.50;99.90;;;;;;4961643;28;20044;-83
2022/11/25 04:05:26;;;;;;;0.60;0.60;;;8.50;99.90;;;;;;4937598;28;20087;-82
2022/11/25 04:07:52;;;;;;;0.60;0.60;;;8.50;99.90;;;;;;4938579;28;20045;-83
2022/11/25 04:10:18;;;;;;;0.60;0.60;;;8.50;99.90;;;;;;4971501;28;20428;-83
2022/11/25 04:12:46;;;;;;;0.60;0.60;;;8.50;99.90;;;;;;4955088;28;20060;-83
2022/11/25 04:15:14;;;;;;;0.60;0.60;;;8.60;99.90;;;;;;4959595;28;20148;-83
2022/11/25 04:17:40;;;;;;;0.60;0.60;;;8.50;99.90;;;;;;4953855;28;20064;-83
2022/11/25 04:20:07;;;;;;;0.60;0.60;;;8.50;99.90;;;;;;4924617;28;20036;-84
2022/11/25 04:22:34;;;;;;;0.60;0.60;;;8.60;99.90;;;;;;4959796;28;20417;-82
2022/11/25 04:25:00;;;;;;;0.60;0.60;;;8.50;99.90;;;;;;4962920;28;20556;-83
2022/11/25 04:27:25;;;;;;;0.60;0.60;;;8.60;99.90;;;;;;4925277;28;20083;-83
2022/11/25 04:29:51;;;;;;;0.60;0.60;;;8.60;99.90;;;;;;4961903;28;20083;-84
2022/11/25 04:32:17;;;;;;;0.63;0.63;;;8.60;99.90;;;;;;4954336;28;20532;-83
2022/11/25 04:34:43;;;;;;;0.60;0.60;;;8.60;99.90;;;;;;4959826;28;20696;-83
2022/11/25 04:37:09;;;;;;;0.60;0.60;;;8.60;99.90;;;;;;4917857;28;20345;-82
2022/11/25 04:39:35;;;;;;;0.60;0.60;;;8.60;99.90;;;;;;4955407;28;20447;-82
2022/11/25 04:44:45;;;;;;;0.60;0.60;;;8.70;99.90;;;;;;4978937;28;20140;-83
2022/11/25 04:47:11;;;;;;;0.60;0.60;;;8.70;99.90;;;;;;4952976;28;20658;-83
2022/11/25 04:49:36;;;;;;;0.60;0.60;;;8.70;99.90;;;;;;4939919;28;20669;-83
2022/11/25 04:52:02;;;;;;;0.60;0.60;;;8.80;99.90;;;;;;4948088;28;20072;-83
2022/11/25 04:54:28;;;;;;;0.60;0.60;;;8.90;99.90;;;;;;4955666;28;20076;-83
2022/11/25 04:56:53;;;;;;;0.60;0.60;;;8.90;99.90;;;;;;4946207;28;20127;-83
2022/11/25 05:02:03;;;;;;;;;;;8.90;99.90;;;;;;4957883;28;20052;-82
2022/11/25 05:04:29;;;;;;;0.60;0.60;;;9.00;99.90;;;;;;4962364;28;20361;-82
2022/11/25 05:06:55;;;;;;;0.60;0.60;;;9.10;99.90;;;;;;4962380;28;20957;-82
2022/11/25 05:09:21;;;;;;;0.60;0.60;;;9.10;99.90;;;;;;4942105;28;20048;-82
2022/11/25 05:11:48;;;;;;;0.60;0.60;;;9.10;99.90;;;;;;4935938;28;20048;-83
2022/11/25 05:14:14;;;;;;;0.60;0.60;;;9.10;99.90;;;;;;4957249;28;20060;-82
2022/11/25 05:16:40;;;;;;;0.60;0.60;;;9.10;99.90;;;;;;4918561;28;20155;-83
2022/11/25 05:19:05;;;;;;;0.60;0.60;;;9.10;99.90;;;;;;4956275;28;20429;-83
2022/11/25 05:21:32;;;;;;;0.60;0.60;;;9.10;99.90;;;;;;4957475;28;20045;-84
2022/11/25 05:23:57;;;;;;;0.60;0.60;;;9.20;99.90;;;;;;4955148;28;20090;-83
2022/11/25 05:26:23;;;;;;;0.60;0.60;;;9.10;99.90;;;;;;4938152;28;20521;-84
2022/11/25 05:28:49;;;;;;;0.60;0.60;;;9.10;99.90;;;;;;4936414;28;20040;-84
2022/11/25 05:31:15;;;;;;;0.60;0.60;;;9.20;99.90;;;;;;4947472;28;20105;-84
2022/11/25 05:33:40;;;;;;;0.60;0.60;;;9.20;99.90;;;;;;4964388;28;20044;-84
2022/11/25 05:36:06;;;;;;;0.60;0.60;;;9.20;99.90;;;;;;4963481;28;20052;-84
2022/11/25 05:38:32;;;;;;;0.60;0.60;;;9.10;99.90;;;;;;4963078;28;20656;-84
2022/11/25 05:41:06;;;;;;;0.60;0.60;;;9.10;99.90;;;;;;4964236;28;20040;-85
2022/11/25 05:43:32;;;;;;;;;;;9.10;99.90;;;;;;4944191;28;20433;-84
2022/11/25 05:45:58;;;;;;;0.60;0.60;;;9.00;99.90;;;;;;4962448;28;19924;-84
2022/11/25 05:48:23;;;;;;;0.60;0.60;;;9.10;99.90;;;;;;4941245;28;20040;-84
2022/11/25 05:50:49;;;;;;;0.60;0.60;;;9.10;99.90;;;;;;4941946;28;20062;-84
2022/11/25 05:53:16;;;;;;;0.60;0.60;;;9.10;99.90;;;;;;4941259;28;20060;-84
2022/11/25 05:55:44;;;;;;;0.60;0.60;;;9.10;99.90;;;;;;4952334;28;20163;-84
2022/11/25 05:58:10;;;;;;;0.60;0.60;;;9.10;99.90;;;;;;4927044;28;20076;-83
2022/11/25 06:00:36;;;;;;;0.60;0.60;;;9.10;99.90;;;;;;4939873;28;20424;-82
2022/11/25 06:03:01;;;;;;;0.60;0.60;;;9.10;99.90;;;;;;4939857;28;20059;-83
2022/11/25 06:05:27;;;;;;;0.60;0.60;;;9.10;99.90;;;;;;4957849;28;20056;-83
2022/11/25 06:07:53;;;;;;;0.60;0.60;;;9.20;99.90;;;;;;4954834;28;20203;-82
2022/11/25 06:10:19;;;;;;;0.60;0.60;;;9.10;99.90;;;;;;4956709;28;20044;-82
2022/11/25 06:12:45;;;;;;;0.60;0.60;;;9.00;99.90;;;;;;4942829;28;20040;-82
2022/11/25 06:15:11;;;;;;;0.60;0.60;;;9.10;99.90;;;;;;4943411;28;20083;-83
2022/11/25 06:17:37;;;;;;;0.60;0.60;;;9.10;99.90;;;;;;4931832;28;20494;-82
2022/11/25 06:20:07;;;;;;;0.60;0.60;;;9.10;99.90;;;;;;4940224;28;20110;-83
2022/11/25 06:22:33;;;;;;;0.60;0.60;;;9.10;99.90;;;;;;4962145;28;20059;-83
2022/11/25 06:24:59;;;;;;;0.60;0.60;;;9.10;99.90;;;;;;4960026;28;20052;-83
2022/11/25 06:27:24;;;;;;;0.60;0.60;;;9.10;99.90;;;;;;4961676;28;20673;-83
2022/11/25 06:29:50;;;;;;;0.60;0.60;;;9.10;99.90;;;;;;4958656;28;20045;-83
2022/11/25 06:32:16;;;;;;;0.50;0.50;;;9.00;99.90;;;;;;4950986;28;20120;-83
2022/11/25 06:34:42;;;;;;;0.60;0.60;;;9.00;99.90;;;;;;4960903;28;20204;-83
2022/11/25 06:37:08;;;;;;;0.52;0.52;;;9.00;99.90;;;;;;4946075;28;20052;-84
2022/11/25 06:39:34;;;;;;;0.60;0.60;;;9.00;99.90;;;;;;4961773;28;20521;-83
2022/11/25 06:41:59;;;;;;;0.60;0.60;;;9.00;99.90;;;;;;4957240;28;20048;-83
2022/11/25 06:44:25;;;;;;;0.60;0.60;;;9.00;99.90;;;;;;4934302;28;20575;-82
2022/11/25 06:46:51;;;;;;;0.60;0.60;;;9.00;99.90;;;;;;4954908;28;20045;-83
2022/11/25 06:49:17;;;;;;;0.60;0.60;;;9.00;99.90;;;;;;4957811;28;20132;-83
2022/11/25 06:51:43;;;;;;;0.60;0.60;;;9.10;99.90;;;;;;4954073;28;20139;-82
2022/11/25 06:54:09;;;;;;;0.60;0.60;;;9.10;99.90;;;;;;4943058;28;20070;-83
2022/11/25 06:56:35;;;;;;;0.60;0.60;;;9.10;99.90;;;;;;4917129;28;20599;-83
2022/11/25 06:59:02;;;;;;;0.60;0.60;;;9.00;99.90;;;;;;4954592;28;20048;-83
2022/11/25 07:01:29;;;;;;;0.60;0.60;;;9.00;99.90;;;;;;4958989;28;20158;-82
2022/11/25 07:04:02;;;;;;;0.60;0.60;;;9.10;99.90;;;;;;4955747;28;20408;-82
2022/11/25 07:06:28;;;;;;;0.60;0.60;;;9.10;99.90;;;;;;4951574;28;20059;-82
2022/11/25 07:08:54;;;;;;;0.60;0.60;;;9.00;99.90;;;;;;4943278;28;20996;-82
2022/11/25 07:11:23;;;;;;;0.60;0.60;;;9.00;99.90;;;;;;4941803;28;20124;-82
2022/11/25 07:13:55;;;;;;;0.60;0.60;;;9.00;99.90;;;;;;4956843;28;20362;-82
2022/11/25 07:16:21;;;;;;;0.60;0.60;;;9.10;99.90;;;;;;4972813;28;20055;-82
2022/11/25 07:18:47;;;;;;;0.60;0.60;;;9.00;99.90;;;;;;4958326;28;20697;-82
2022/11/25 07:21:16;;;;;;;0.60;0.60;;;9.00;99.90;;;;;;4961132;28;20839;-81
2022/11/25 07:23:43;;;;;;;0.60;0.60;;;9.00;99.90;;;;;;4957952;28;20129;-81
2022/11/25 07:26:12;;;;;;;0.60;0.60;;;9.00;99.90;;;;;;4958307;28;20523;-81
2022/11/25 07:28:39;;;;;;;0.60;0.60;;;9.10;99.90;;;;;;4961967;28;20144;-82
2022/11/25 07:31:09;;;;;;;0.60;0.60;;;9.10;99.90;;;;;;4958547;28;20048;-81
2022/11/25 07:33:35;;;;;;;0.60;0.60;;;9.10;99.90;;;;;;4957699;28;20045;-82
2022/11/25 07:36:06;;;;;;;0.60;0.60;;;9.00;99.90;;;;;;4956553;28;20498;-83
2022/11/25 07:38:32;;;;;;;0.60;0.60;;;9.10;99.90;;;;;;4937408;28;20425;-82
2022/11/25 07:41:08;;;;;;;0.60;0.60;;;9.00;99.90;;;;;;4958867;28;20060;-82
2022/11/25 07:43:35;;;;;;;0.60;0.60;;;9.10;99.90;;;;;;4957019;28;20045;-81
2022/11/25 07:46:19;;;;;;;0.60;0.60;;;9.10;99.90;;;;;;4943211;28;20575;-82
2022/11/25 07:48:45;;;;;;;0.60;0.60;;;9.10;99.90;;;;;;4957886;28;20253;-82
2022/11/25 07:51:17;;;;;;;0.60;0.60;;;9.10;99.90;;;;;;4959851;28;20645;-82
2022/11/25 07:53:43;;;;;;;0.60;0.60;;;9.10;99.90;;;;;;4963853;28;20485;-82
2022/11/25 07:56:09;;;;;;;0.50;0.50;;;9.00;99.90;;;;;;4944144;28;20528;-82
2022/11/25 07:58:35;;;;;;;0.60;0.60;;;9.00;99.90;;;;;;4960964;28;20051;-81
2022/11/25 08:01:05;;;;;;;0.60;0.60;;;9.00;99.90;;;;;;4953559;28;20052;-81
2022/11/25 08:03:35;;;;;;;0.60;0.60;;;9.00;99.90;;;;;;4960498;28;20098;-81
2022/11/25 08:06:03;;;;;;;0.60;0.60;;;9.00;99.90;;;;;;4960716;28;20659;-82
2022/11/25 08:08:29;;;;;;;0.60;0.60;;;9.00;99.90;;;;;;4960550;28;20118;-82
2022/11/25 08:10:55;;;;;;;0.60;0.60;;;9.10;99.90;;;;;;4951974;28;20052;-81
2022/11/25 08:13:21;;;;;;;0.60;0.60;;;9.00;99.90;;;;;;4957582;28;20375;-81
2022/11/25 08:15:48;;;;;;;0.60;0.60;;;9.00;99.90;;;;;;4961519;28;20863;-83
2022/11/25 08:18:13;;;;;;;0.60;0.60;;;9.00;99.90;;;;;;4942812;28;20052;-82
2022/11/25 08:20:39;;;;;;;0.60;0.60;;;8.90;99.90;;;;;;4942354;28;20821;-82
2022/11/25 08:23:08;;;;;;;0.60;0.60;;;8.90;99.90;;;;;;4945499;28;20554;-82
2022/11/25 08:25:42;;;;;;;0.60;0.60;;;8.90;99.90;;;;;;4961635;28;20371;-80
2022/11/25 08:28:08;;;;;;;0.60;0.60;;;9.00;99.90;;;;;;4944900;28;20091;-82
2022/11/25 08:30:34;;;;;;;0.60;0.60;;;9.00;99.90;;;;;;4960862;28;20326;-83
2022/11/25 08:33:00;;;;;;;0.60;0.60;;;8.90;99.90;;;;;;4942992;28;20056;-82
2022/11/25 08:35:26;;;;;;;0.60;0.60;;;9.00;99.90;;;;;;4964950;28;20379;-82
2022/11/25 08:37:52;;;;;;;0.60;0.60;;;9.00;99.90;;;;;;4964839;28;20524;-82
2022/11/25 08:40:18;;;;;;;0.60;0.60;;;9.10;99.90;;;;;;4967568;28;20075;-81
2022/11/25 08:42:44;;;;;;;0.60;0.60;;;9.20;99.90;;;;;;4964621;28;20460;-82
2022/11/25 08:45:11;;;;;;;0.60;0.60;;;9.40;99.90;;;;;;4960925;28;20599;-82
2022/11/25 08:47:37;;;;;;;0.60;0.60;;;9.40;99.90;;;;;;4945408;28;20755;-81
2022/11/25 08:50:07;;;;;;;0.60;0.60;;;9.50;99.90;;;;;;4960583;28;20048;-81
2022/11/25 08:52:33;;;;;;;0.60;0.60;;;9.60;99.90;;;;;;4959991;28;20052;-82
2022/11/25 08:54:58;;;;;;;0.60;0.60;;;9.70;99.90;;;;;;4979310;28;20429;-81
2022/11/25 08:57:24;;;;;;;0.60;0.60;;;9.70;99.90;;;;;;4966885;28;20049;-82
2022/11/25 08:59:50;;;;;;;0.60;0.60;;;9.80;99.90;;;;;;4947820;28;20560;-82
2022/11/25 09:02:16;;;;;;;0.60;0.60;;;9.90;99.90;;;;;;4944095;28;20052;-81
2022/11/25 09:04:43;;;;;;;0.60;0.60;;;9.90;99.90;;;;;;4953900;28;20110;-80
2022/11/25 09:07:09;;;;;;;0.60;0.60;;;10.00;99.90;;;;;;4956834;28;20048;-80
2022/11/25 09:09:35;;;;;;;0.60;0.60;;;10.00;99.90;;;;;;4955622;28;20544;-82
2022/11/25 09:12:00;;;;;;;0.60;0.60;;;10.10;99.90;;;;;;4959736;28;20042;-83
2022/11/25 09:14:26;;;;;;;0.60;0.60;;;10.20;99.90;;;;;;4960107;28;20053;-85
2022/11/25 09:16:52;;;;;;;0.60;0.60;;;10.30;99.90;;;;;;4960558;28;20411;-83
2022/11/25 09:19:18;;;;;;;0.60;0.60;;;10.20;99.90;;;;;;4936331;28;20048;-83
2022/11/25 09:21:44;;;;;;;0.60;0.60;;;10.30;99.90;;;;;;4944520;28;20650;-84
2022/11/25 09:24:10;;;;;;;0.60;0.60;;;10.40;99.90;;;;;;4963350;28;20573;-84
2022/11/25 09:26:39;;;;;;;0.60;0.60;;;10.50;99.90;;;;;;4944832;28;20048;-81
2022/11/25 09:29:06;;;;;;;0.60;0.60;;;10.50;99.90;;;;;;4937374;28;20055;-82
2022/11/25 09:31:33;;;;;;;0.50;0.50;;;10.50;99.90;;;;;;4941343;28;20571;-82
2022/11/25 09:33:59;;;;;;;0.60;0.60;;;10.50;99.90;;;;;;4955033;28;20049;-79
2022/11/25 09:36:25;;;;;;;0.50;0.50;;;10.50;99.90;;;;;;4966612;28;20075;-82
2022/11/25 09:38:51;;;;;;;0.60;0.60;;;10.60;99.90;;;;;;4970413;28;20087;-81
2022/11/25 09:48:07;;;;;;;0.60;0.60;;;10.60;99.90;;;;;;4977182;28;20055;-81
2022/11/25 09:50:33;;;;;;;;;;;10.40;99.90;;;;;;4957660;28;20419;-80
2022/11/25 09:52:59;;;;;;;0.60;0.60;;;10.50;99.90;;;;;;4966927;28;20404;-82
2022/11/25 09:55:29;;;;;;;0.60;0.60;;;10.60;99.90;;;;;;4958363;28;20036;-80
2022/11/25 09:58:11;;;;;;;0.60;0.60;;;10.40;99.90;;;;;;4938942;28;20280;-81
2022/11/25 10:00:41;;;;;;;0.50;0.50;;;10.50;99.90;;;;;;4941297;28;20052;-81
2022/11/25 10:03:37;;;;;;;0.60;0.60;;;10.70;99.90;;;;;;4958209;28;20052;-83
2022/11/25 10:06:15;;;;;;;0.60;0.60;;;10.60;99.90;;;;;;4972497;28;20055;-83
2022/11/25 10:08:46;;;;;;;0.50;0.50;;;10.60;99.90;;;;;;4954121;28;20548;-82
2022/11/25 10:11:20;;;;;;;0.60;0.60;;;10.70;99.90;;;;;;4941443;28;20048;-80
2022/11/25 10:14:25;;;;;;;0.60;0.60;;;10.70;99.90;;;;;;4959767;28;20291;-81
2022/11/25 10:17:29;;;;;;;0.60;0.60;;;10.70;99.90;;;;;;4919657;28;20052;-81
2022/11/25 10:20:11;;;;;;;0.50;0.50;;;10.70;99.90;;;;;;4962829;28;20904;-81
2022/11/25 10:22:41;;;;;;;0.50;0.50;;;10.70;99.90;;;;;;4960230;28;20044;-82
2022/11/25 10:25:30;;;;;;;0.50;0.50;;;10.80;99.90;;;;;;4957903;28;20123;-80
2022/11/25 10:28:16;;;;;;;0.60;0.60;;;10.80;99.90;;;;;;4951238;28;20098;-82
2022/11/25 10:30:51;;;;;;;0.50;0.50;;;10.90;99.90;;;;;;4957576;28;20064;-83
2022/11/25 10:33:25;;;;;;;0.60;0.60;;;11.00;99.90;;;;;;4959344;28;20063;-81
2022/11/25 10:36:22;;;;;;;0.60;0.60;;;10.90;99.90;;;;;;4960160;28;20080;-82
2022/11/25 10:39:02;;;;;;;0.60;0.60;;;11.00;99.90;;;;;;4942662;28;20128;-80
2022/11/25 10:41:31;;;;;;;0.60;0.60;;;11.00;99.90;;;;;;4958230;28;20061;-80
2022/11/25 10:43:57;;;;;;;0.60;0.60;;;11.00;99.90;;;;;;4961261;28;20261;-80
2022/11/25 10:46:43;;;;;;;0.60;0.60;;;11.10;99.90;;;;;;4954862;28;20092;-78
2022/11/25 10:49:41;;;;;;;0.60;0.60;;;11.20;99.90;;;;;;4957672;28;20592;-83
2022/11/25 10:52:12;;;;;;;0.50;0.50;;;11.20;99.90;;;;;;4951771;28;20920;-83
2022/11/25 10:54:38;;;;;;;0.50;0.50;;;11.20;99.90;;;;;;4956227;28;20048;-80
2022/11/25 10:57:17;;;;;;;0.60;0.60;;;11.30;99.90;;;;;;4959119;28;20552;-81
2022/11/25 10:59:55;;;;;;;0.50;0.50;;;11.40;99.90;;;;;;4954976;28;20036;-81
2022/11/25 11:02:27;;;;;;;0.50;0.50;;;11.50;99.90;;;;;;4963242;28;20829;-85
2022/11/25 11:05:01;;;;;;;0.60;0.60;;;11.60;99.90;;;;;;4941963;28;20540;-82
2022/11/25 11:07:34;;;;;;;0.50;0.50;;;11.60;99.90;;;;;;4957944;28;20056;-82
2022/11/25 11:10:23;;;;;;;0.50;0.50;;;11.70;99.90;;;;;;4967324;28;20087;-83
2022/11/25 11:13:00;;;;;;;0.50;0.50;;;11.80;99.90;;;;;;4954333;28;20398;-81
2022/11/25 11:15:45;;;;;;;0.50;0.50;;;11.70;99.90;;;;;;4957166;28;20032;-81
2022/11/25 11:18:36;;;;;;;0.50;0.50;;;11.80;99.90;;;;;;4962869;28;20056;-81
2022/11/25 11:21:05;;;;;;;0.50;0.50;;;11.90;99.90;;;;;;4957863;28;20052;-81
2022/11/25 11:23:50;;;;;;;0.50;0.50;;;12.00;99.90;;;;;;4956061;28;20052;-83
2022/11/25 11:26:31;;;;;;;0.50;0.50;;;12.10;99.90;;;;;;4952684;28;20974;-80
2022/11/25 11:29:02;;;;;;;0.57;0.57;;;12.10;99.90;;;;;;4942568;28;20048;-81
2022/11/25 11:31:38;;;;;;;0.50;0.50;;;12.20;99.90;;;;;;4953788;28;20045;-81
2022/11/25 11:34:40;;;;;;;0.50;0.50;;;12.20;99.90;;;;;;4953765;28;20405;-82
2022/11/25 11:37:18;;;;;;;0.50;0.50;;;12.30;99.90;;;;;;4958304;28;20337;-81
2022/11/25 11:40:24;;;;;;;0.50;0.50;;;12.30;99.90;;;;;;4955736;28;20774;-80
2022/11/25 11:43:05;;;;;;;0.50;0.50;;;12.40;99.90;;;;;;4906724;28;20060;-82
2022/11/25 11:45:55;;;;;;;0.50;0.50;;;12.40;99.90;;;;;;4954311;28;20482;-82
2022/11/25 11:48:20;;;;;;;0.50;0.50;;;12.60;99.90;;;;;;4956536;28;20068;-82
2022/11/25 11:50:55;;;;;;;0.50;0.50;;;12.60;99.90;;;;;;4965373;28;20127;-84
2022/11/25 11:53:50;;;;;;;0.50;0.50;;;12.60;99.90;;;;;;4956749;28;20400;-83
2022/11/25 11:56:37;;;;;;;0.50;0.50;;;12.60;99.90;;;;;;4965288;28;20063;-80
2022/11/25 11:59:22;;;;;;;0.50;0.50;;;12.80;99.90;;;;;;4960617;28;20483;-85
2022/11/25 12:02:19;;;;;;;0.50;0.50;;;12.90;99.90;;;;;;4940854;28;20052;-83
2022/11/25 12:05:00;;;;;;;0.50;0.50;;;12.80;99.90;;;;;;4952785;28;20105;-84
2022/11/25 12:07:26;;;;;;;0.50;0.50;;;12.80;99.90;;;;;;4944473;28;20083;-83
2022/11/25 12:10:05;;;;;;;0.50;0.50;;;12.90;99.90;;;;;;4960880;28;20430;-84
2022/11/25 12:12:39;;;;;;;0.50;0.50;;;12.90;99.90;;;;;;4961387;28;20561;-80
2022/11/25 12:15:31;;;;;;;0.50;0.50;;;12.90;99.90;;;;;;4953280;28;20359;-83
2022/11/25 12:18:03;;;;;;;0.50;0.50;;;12.70;99.90;;;;;;4961519;28;20163;-82
2022/11/25 12:20:51;;;;;;;0.50;0.50;;;13.00;99.90;;;;;;4961694;28;20049;-82
2022/11/25 12:23:38;;;;;;;0.50;0.50;;;12.90;99.90;;;;;;4943896;28;20114;-83
2022/11/25 12:26:14;;;;;;;0.50;0.50;;;13.00;99.90;;;;;;4939658;28;20914;-82
2022/11/25 12:28:55;;;;;;;0.50;0.50;;;13.00;99.90;;;;;;4960912;28;20052;-80
2022/11/25 12:31:26;;;;;;;0.50;0.50;;;13.20;99.90;;;;;;4957880;28;20994;-82
2022/11/25 12:34:04;;;;;;;0.50;0.50;;;12.90;99.90;;;;;;4958365;28;20429;-83
2022/11/25 12:36:42;;;;;;;0.50;0.50;;;12.80;99.90;;;;;;4961451;28;20044;-81
2022/11/25 12:39:31;;;;;;;0.50;0.50;;;12.50;99.90;;;;;;4961494;28;20053;-82
2022/11/25 12:42:04;;;;;;;0.50;0.50;;;12.40;99.90;;;;;;4959936;28;20922;-81
2022/11/25 12:44:57;;;;;;;0.50;0.50;;;12.30;99.90;;;;;;4979616;28;20861;-81
2022/11/25 12:47:22;;;;;;;0.50;0.50;;;12.30;99.90;;;;;;4956240;28;20072;-83
2022/11/25 12:49:51;;;;;;;0.50;0.50;;;12.30;99.90;;;;;;4958726;28;20522;-81
2022/11/25 12:52:40;;;;;;;0.50;0.50;;;12.10;99.90;;;;;;4946793;28;20041;-81
2022/11/25 12:55:17;;;;;;;0.50;0.50;;;12.10;99.90;;;;;;4956606;28;20518;-82
2022/11/25 12:57:56;;;;;;;0.50;0.50;;;12.00;99.90;;;;;;4963048;28;20051;-82
2022/11/25 13:00:26;;;;;;;0.50;0.50;;;11.90;99.90;;;;;;4958088;28;20532;-79
2022/11/25 13:02:52;;;;;;;0.50;0.50;;;11.80;99.90;;;;;;4980277;28;20532;-82
2022/11/25 13:05:41;;;;;;;0.50;0.50;;;11.80;99.90;;;;;;4959802;28;20129;-82
2022/11/25 13:08:29;;;;;;;0.50;0.50;;;11.80;99.90;;;;;;4943866;28;20383;-81
2022/11/25 13:11:26;;;;;;;0.50;0.50;;;11.90;99.90;;;;;;4957083;28;20055;-82
2022/11/25 13:14:15;;;;;;;0.50;0.50;;;11.90;99.90;;;;;;4960577;28;20507;-84
2022/11/25 13:16:44;;;;;;;0.50;0.50;;;11.90;99.90;;;;;;4957511;28;20087;-82
2022/11/25 13:19:13;;;;;;;0.50;0.50;;;11.90;99.90;;;;;;4955481;28;20218;-82
2022/11/25 13:22:05;;;;;;;0.50;0.50;;;11.80;99.90;;;;;;4942822;28;20054;-84
2022/11/25 13:24:39;;;;;;;0.50;0.50;;;11.80;99.90;;;;;;4957448;28;20068;-80
2022/11/25 13:27:24;;;;;;;0.50;0.50;;;11.90;99.90;;;;;;4958096;28;20767;-81
2022/11/25 13:29:53;;;;;;;0.50;0.50;;;11.80;99.90;;;;;;4958509;28;20296;-82